Time;durP1;ratioP1;P1;durP2;ratioP2;P2;SDS_P1;SDS_P2;PMS_P1;PMS_P2;Temp;Humidity;BMP_temperature;BMP_pressure;BME280_temperature;BME280_humidity;BME280_pressure;Samples;Min_cycle;Max_cycle;Signal;HPM_P1;HPM_P2
2024/01/25 00:02:27;;;;;;;9.15;3.20;;;10.40;58.10;;;;;;20713;6738;307587;-77
2024/01/25 00:05:03;;;;;;;10.53;2.83;;;10.60;56.90;;;;;;20774;6750;119897;-77
2024/01/25 00:07:45;;;;;;;11.10;3.03;;;10.70;57.20;;;;;;20931;6739;118304;-76
2024/01/25 00:10:21;;;;;;;9.00;2.70;;;10.50;57.50;;;;;;20999;6721;117567;-76
2024/01/25 00:12:57;;;;;;;8.43;2.63;;;10.40;58.00;;;;;;20965;6721;117070;-76
2024/01/25 00:15:33;;;;;;;12.33;2.87;;;10.30;58.50;;;;;;21027;6711;116965;-76
2024/01/25 00:18:09;;;;;;;11.38;3.53;;;10.50;57.50;;;;;;20815;6711;334775;-76
2024/01/25 00:20:44;;;;;;;8.23;2.63;;;10.50;57.50;;;;;;21014;6711;119734;-77
2024/01/25 00:23:20;;;;;;;10.80;3.30;;;10.60;57.60;;;;;;20948;6711;118657;-76
2024/01/25 00:25:58;;;;;;;9.83;2.73;;;10.40;58.40;;;;;;21010;6711;117140;-76
2024/01/25 00:28:33;;;;;;;8.18;3.30;;;10.40;58.40;;;;;;20798;6711;276930;-76
2024/01/25 00:31:08;;;;;;;10.13;3.40;;;10.60;57.20;;;;;;20809;6711;305491;-78
2024/01/25 00:33:44;;;;;;;9.37;3.63;;;11.30;55.50;;;;;;20715;6711;309013;-77
2024/01/25 00:36:20;;;;;;;11.63;2.97;;;11.30;55.50;;;;;;21028;6711;118316;-76
2024/01/25 00:38:55;;;;;;;9.73;2.40;;;11.30;55.90;;;;;;21022;6711;117080;-77
2024/01/25 00:41:31;;;;;;;13.30;3.10;;;11.00;56.60;;;;;;21019;6711;117323;-76
2024/01/25 00:44:07;;;;;;;6.10;2.63;;;10.80;57.30;;;;;;20887;6711;117228;-76
2024/01/25 00:46:46;;;;;;;10.33;2.70;;;10.70;57.90;;;;;;20994;6711;117378;-77
2024/01/25 00:49:19;;;;;;;10.60;3.27;;;10.50;58.30;;;;;;20812;6711;305465;-77
2024/01/25 00:51:56;;;;;;;12.77;3.67;;;10.70;57.50;;;;;;20812;6711;276056;-76
2024/01/25 00:54:32;;;;;;;12.23;3.23;;;11.10;56.60;;;;;;20614;6710;308123;-76
2024/01/25 00:57:08;;;;;;;8.27;3.03;;;11.40;55.70;;;;;;21028;6711;117139;-76
2024/01/25 00:59:47;;;;;;;7.20;2.87;;;11.00;56.70;;;;;;21027;6711;116698;-77
2024/01/25 01:02:20;;;;;;;8.18;3.20;;;11.00;56.70;;;;;;20799;6711;334775;-77
2024/01/25 01:04:59;;;;;;;7.87;2.93;;;11.10;56.00;;;;;;20813;6711;117545;-75
2024/01/25 01:07:36;;;;;;;7.57;2.90;;;11.10;56.50;;;;;;21027;6711;117018;-77
2024/01/25 01:10:15;;;;;;;11.45;3.10;;;10.90;57.10;;;;;;20818;6711;278757;-76
2024/01/25 01:12:48;;;;;;;8.60;3.47;;;11.00;56.20;;;;;;20999;6711;119091;-75
2024/01/25 01:15:23;;;;;;;11.77;2.60;;;11.00;56.50;;;;;;21029;6711;119588;-75
2024/01/25 01:17:59;;;;;;;10.20;3.20;;;10.90;57.20;;;;;;20813;6711;304641;-76
2024/01/25 01:20:34;;;;;;;9.10;2.83;;;11.00;56.20;;;;;;21005;6711;117194;-76
2024/01/25 01:23:10;;;;;;;9.23;2.57;;;11.00;56.50;;;;;;20970;6711;117789;-75
2024/01/25 01:25:46;;;;;;;12.32;3.85;;;10.80;57.00;;;;;;20799;6711;333872;-77
2024/01/25 01:28:21;;;;;;;9.57;3.07;;;11.00;56.40;;;;;;21017;6711;117649;-77
2024/01/25 01:30:57;;;;;;;12.43;3.40;;;11.10;56.20;;;;;;20754;6711;306010;-75
2024/01/25 01:33:36;;;;;;;6.70;2.80;;;11.10;56.20;;;;;;20944;6711;119449;-76
2024/01/25 01:36:12;;;;;;;8.20;2.10;;;11.10;56.60;;;;;;21028;6711;117039;-76
2024/01/25 01:38:44;;;;;;;8.33;2.90;;;10.90;57.20;;;;;;20745;6711;287422;-77
2024/01/25 01:41:20;;;;;;;8.38;3.22;;;11.00;57.50;;;;;;20799;6711;305337;-75
2024/01/25 01:43:55;;;;;;;11.97;3.13;;;11.30;57.00;;;;;;20664;6711;308009;-75
2024/01/25 01:46:37;;;;;;;9.07;2.93;;;11.70;56.60;;;;;;20772;6711;305474;-75
2024/01/25 01:49:13;;;;;;;9.77;2.97;;;11.80;56.50;;;;;;20798;6711;305913;-75
2024/01/25 01:51:48;;;;;;;9.83;2.80;;;11.80;56.40;;;;;;21009;6711;118056;-78
2024/01/25 01:54:28;;;;;;;9.43;2.90;;;11.20;57.70;;;;;;20829;6711;117744;-75
2024/01/25 01:57:00;;;;;;;9.40;2.80;;;11.20;57.60;;;;;;21016;6711;117104;-75
2024/01/25 01:59:36;;;;;;;10.02;3.25;;;11.00;58.60;;;;;;20819;6711;320936;-75
2024/01/25 02:02:12;;;;;;;9.93;2.97;;;10.90;58.40;;;;;;20800;6711;304992;-76
2024/01/25 02:04:48;;;;;;;10.43;3.27;;;11.20;58.00;;;;;;20598;6711;309011;-76
2024/01/25 02:07:24;;;;;;;8.40;2.53;;;11.30;57.90;;;;;;21024;6710;116952;-75
2024/01/25 02:10:00;;;;;;;11.07;3.45;;;11.30;57.70;;;;;;20808;6711;305506;-75
2024/01/25 02:12:36;;;;;;;14.13;3.60;;;11.60;57.20;;;;;;20799;6711;275268;-76
2024/01/25 02:15:11;;;;;;;11.70;3.28;;;11.50;57.10;;;;;;20580;6782;338139;-76
2024/01/25 02:17:47;;;;;;;11.70;3.08;;;11.70;56.80;;;;;;20680;6750;304376;-77
2024/01/25 02:20:23;;;;;;;8.23;3.23;;;11.80;56.50;;;;;;20885;6751;118380;-77
2024/01/25 02:22:59;;;;;;;7.77;2.80;;;11.30;57.80;;;;;;20874;6753;120431;-79
2024/01/25 02:25:35;;;;;;;8.27;2.80;;;11.30;57.80;;;;;;20761;6742;334946;-75
2024/01/25 02:28:10;;;;;;;10.53;3.20;;;11.30;57.80;;;;;;20771;6721;306397;-76
2024/01/25 02:30:46;;;;;;;10.43;3.27;;;11.50;57.50;;;;;;20768;6721;306126;-75
2024/01/25 02:33:22;;;;;;;10.17;3.10;;;11.70;57.20;;;;;;20866;6736;265387;-75
2024/01/25 02:35:58;;;;;;;10.77;3.00;;;11.60;57.50;;;;;;20727;6739;276730;-76
2024/01/25 02:38:33;;;;;;;9.63;3.10;;;11.60;57.30;;;;;;20749;6726;305350;-76
2024/01/25 02:41:09;;;;;;;10.03;2.83;;;11.80;56.80;;;;;;20983;6726;116919;-75
2024/01/25 02:43:45;;;;;;;6.43;2.37;;;11.30;57.80;;;;;;20901;6727;117136;-75
2024/01/25 02:46:22;;;;;;;10.40;3.27;;;11.30;57.80;;;;;;20762;6727;306168;-76
2024/01/25 02:49:01;;;;;;;12.82;3.10;;;11.30;57.70;;;;;;20795;6718;334472;-76
2024/01/25 02:51:34;;;;;;;5.60;2.17;;;11.60;57.40;;;;;;20957;6735;117473;-76
2024/01/25 02:54:09;;;;;;;9.33;2.63;;;11.50;57.60;;;;;;20835;6738;120960;-76
2024/01/25 02:56:45;;;;;;;8.67;2.80;;;11.20;58.30;;;;;;20977;6721;117435;-75
2024/01/25 02:59:20;;;;;;;8.97;2.63;;;10.90;58.90;;;;;;20979;6728;116980;-75
2024/01/25 03:01:56;;;;;;;9.37;2.60;;;10.70;59.50;;;;;;20953;6736;117480;-76
2024/01/25 03:04:31;;;;;;;12.68;3.03;;;10.50;60.00;;;;;;20573;6736;307990;-75
2024/01/25 03:07:07;;;;;;;7.80;2.23;;;10.60;60.30;;;;;;20901;6751;119585;-76
2024/01/25 03:09:43;;;;;;;12.00;2.80;;;10.60;60.30;;;;;;20945;6739;117443;-76
2024/01/25 03:12:19;;;;;;;11.77;2.63;;;10.30;61.40;;;;;;20974;6736;117512;-76
2024/01/25 03:14:58;;;;;;;8.33;2.63;;;10.30;61.40;;;;;;20846;6718;117939;-77
2024/01/25 03:17:30;;;;;;;9.27;2.37;;;10.20;61.90;;;;;;21038;6591;118910;-82
2024/01/25 03:20:06;;;;;;;9.10;3.15;;;10.10;62.40;;;;;;20804;6730;305116;-79
2024/01/25 03:22:42;;;;;;;4.90;2.30;;;10.40;62.10;;;;;;21018;6728;67036;-80
2024/01/25 03:25:18;;;;;;;8.70;3.00;;;10.40;62.10;;;;;;20820;6721;290779;-79
2024/01/25 03:27:46;;;;;;;7.67;2.37;;;10.60;61.80;;;;;;21023;6720;66818;-80
2024/01/25 03:30:12;;;;;;;9.45;2.87;;;10.60;61.70;;;;;;20832;6776;298400;-80
2024/01/25 03:32:37;;;;;;;3.40;2.20;;;10.80;61.60;;;;;;21007;6788;67940;-80
2024/01/25 03:35:03;;;;;;;7.37;2.30;;;10.70;61.50;;;;;;20812;6791;67396;-79
2024/01/25 03:37:29;;;;;;;9.93;2.80;;;10.70;61.60;;;;;;20601;6847;290049;-79
2024/01/25 03:39:56;;;;;;;6.15;2.37;;;11.00;60.80;;;;;;20603;6847;337489;-80
2024/01/25 03:42:21;;;;;;;10.87;2.20;;;10.90;60.70;;;;;;20812;6847;68261;-80
2024/01/25 03:44:47;;;;;;;11.52;3.10;;;10.90;60.70;;;;;;20648;6832;276766;-80
2024/01/25 03:47:13;;;;;;;11.27;3.10;;;11.20;60.20;;;;;;20581;6847;277927;-80
2024/01/25 03:49:39;;;;;;;9.93;2.40;;;11.20;60.20;;;;;;20794;6847;119337;-80
2024/01/25 03:52:06;;;;;;;7.17;2.47;;;11.10;60.20;;;;;;20793;6847;117872;-79
2024/01/25 03:54:31;;;;;;;8.93;2.70;;;10.90;60.90;;;;;;20776;6847;118831;-80
2024/01/25 03:56:57;;;;;;;6.78;2.10;;;10.70;61.60;;;;;;20791;6847;119627;-80
2024/01/25 03:59:23;;;;;;;7.30;2.55;;;10.40;62.50;;;;;;20812;6847;68328;-80
2024/01/25 04:01:49;;;;;;;8.90;2.37;;;10.30;62.40;;;;;;20793;6847;118186;-80
2024/01/25 04:04:17;;;;;;;10.00;2.97;;;10.30;62.90;;;;;;20534;6847;329020;-80
2024/01/25 04:06:43;;;;;;;5.47;2.20;;;10.40;62.30;;;;;;20627;6847;119441;-80
2024/01/25 04:09:09;;;;;;;7.87;2.70;;;10.50;62.30;;;;;;20433;6832;277265;-79
2024/01/25 04:11:36;;;;;;;8.80;2.77;;;11.00;61.10;;;;;;20634;6832;337821;-79
2024/01/25 04:14:03;;;;;;;7.93;2.70;;;10.90;61.00;;;;;;20628;6832;279501;-80
2024/01/25 04:16:29;;;;;;;7.87;3.03;;;11.20;60.30;;;;;;20574;6832;276643;-79
2024/01/25 04:18:54;;;;;;;8.40;2.73;;;11.40;59.70;;;;;;20570;6847;301684;-80
2024/01/25 04:21:20;;;;;;;9.40;2.40;;;11.60;59.20;;;;;;20761;6847;117666;-80
2024/01/25 04:23:45;;;;;;;6.80;2.40;;;11.40;59.50;;;;;;20551;6847;309221;-80
2024/01/25 04:26:12;;;;;;;8.07;2.67;;;11.50;59.10;;;;;;20543;6846;308648;-81
2024/01/25 04:28:37;;;;;;;9.27;2.67;;;11.50;59.10;;;;;;20532;6846;309591;-80
2024/01/25 04:31:03;;;;;;;6.73;2.30;;;11.60;58.60;;;;;;20761;6847;117921;-80
2024/01/25 04:33:28;;;;;;;7.97;2.60;;;11.40;58.80;;;;;;20549;6847;298676;-80
2024/01/25 04:35:55;;;;;;;9.25;2.83;;;11.20;59.30;;;;;;20818;6832;116898;-80
2024/01/25 04:38:21;;;;;;;7.83;2.73;;;11.20;59.90;;;;;;20615;6832;277973;-80
2024/01/25 04:40:47;;;;;;;4.70;1.80;;;11.00;59.50;;;;;;20811;6832;123238;-80
2024/01/25 04:43:13;;;;;;;5.60;2.43;;;11.00;59.50;;;;;;20820;6832;118571;-80
2024/01/25 04:45:38;;;;;;;6.33;2.17;;;10.80;60.10;;;;;;20781;6847;117231;-77
2024/01/25 04:48:04;;;;;;;6.47;2.70;;;10.60;60.80;;;;;;20564;6847;300221;-77
2024/01/25 04:50:32;;;;;;;8.67;3.00;;;10.90;60.30;;;;;;20561;6847;308087;-78
2024/01/25 04:52:57;;;;;;;6.97;2.30;;;10.90;60.30;;;;;;20794;6847;117990;-78
2024/01/25 04:55:23;;;;;;;7.63;2.43;;;10.90;60.30;;;;;;20789;6847;118434;-78
2024/01/25 04:57:53;;;;;;;7.57;2.63;;;10.70;60.90;;;;;;20584;6847;278054;-78
2024/01/25 05:00:16;;;;;;;8.63;2.57;;;10.80;60.70;;;;;;20575;6847;277921;-78
2024/01/25 05:02:41;;;;;;;5.87;2.33;;;11.00;60.00;;;;;;20766;6847;120024;-75
2024/01/25 05:05:07;;;;;;;8.27;2.80;;;11.00;60.20;;;;;;20556;6847;278582;-76
2024/01/25 05:07:32;;;;;;;5.40;2.10;;;11.00;60.20;;;;;;20770;6847;117388;-76
2024/01/25 05:09:59;;;;;;;6.40;2.43;;;11.00;61.20;;;;;;20567;6847;278972;-76
2024/01/25 05:12:24;;;;;;;6.53;2.40;;;10.90;60.50;;;;;;20467;6847;278953;-75
2024/01/25 05:14:50;;;;;;;5.20;2.40;;;11.20;60.30;;;;;;20557;6847;308005;-76
2024/01/25 05:17:15;;;;;;;2.50;1.67;;;11.40;60.00;;;;;;20764;6847;121663;-76
2024/01/25 05:19:41;;;;;;;6.80;2.13;;;11.20;60.00;;;;;;20561;6847;277789;-76
2024/01/25 05:22:07;;;;;;;7.37;2.30;;;11.20;60.20;;;;;;20586;6847;308362;-79
2024/01/25 05:24:32;;;;;;;5.57;2.20;;;11.40;59.70;;;;;;20581;6847;278397;-77
2024/01/25 05:26:58;;;;;;;4.12;2.10;;;11.70;58.60;;;;;;20608;6832;308719;-75
2024/01/25 05:29:25;;;;;;;5.90;2.27;;;11.60;58.50;;;;;;20828;6832;117651;-74
2024/01/25 05:31:51;;;;;;;8.53;2.13;;;11.50;59.00;;;;;;20568;6847;291691;-76
2024/01/25 05:34:17;;;;;;;4.37;1.60;;;11.40;58.70;;;;;;20842;6832;116597;-78
2024/01/25 05:36:42;;;;;;;5.27;1.93;;;11.30;59.10;;;;;;20759;6847;117398;-78
2024/01/25 05:39:08;;;;;;;5.37;1.63;;;11.00;59.70;;;;;;20826;6831;117220;-77
2024/01/25 05:41:33;;;;;;;3.53;1.50;;;10.80;60.40;;;;;;20777;6847;118382;-77
2024/01/25 05:43:59;;;;;;;4.90;2.20;;;10.60;60.90;;;;;;20555;6847;278181;-78
2024/01/25 05:46:24;;;;;;;5.03;2.00;;;10.70;60.30;;;;;;20582;6832;309921;-78
2024/01/25 05:48:51;;;;;;;5.27;2.20;;;11.20;59.30;;;;;;20567;6847;323520;-77
2024/01/25 05:51:16;;;;;;;5.67;1.63;;;11.20;59.30;;;;;;20789;6847;117444;-77
2024/01/25 05:53:42;;;;;;;4.47;1.95;;;11.10;59.40;;;;;;20774;6847;117765;-78
2024/01/25 05:56:08;;;;;;;6.43;2.27;;;10.80;60.20;;;;;;20556;6847;308148;-77
2024/01/25 05:58:34;;;;;;;5.80;1.92;;;10.80;60.20;;;;;;20545;6847;299269;-77
2024/01/25 06:01:01;;;;;;;6.77;2.13;;;11.00;59.80;;;;;;20560;6847;327450;-75
2024/01/25 06:03:27;;;;;;;3.63;1.20;;;11.20;59.40;;;;;;20771;6847;117339;-77
2024/01/25 06:05:53;;;;;;;4.33;2.10;;;10.90;59.60;;;;;;20578;6847;306223;-77
2024/01/25 06:08:18;;;;;;;2.67;1.17;;;10.90;59.50;;;;;;20775;6847;119377;-78
2024/01/25 06:10:44;;;;;;;6.10;1.65;;;10.80;59.90;;;;;;20758;6847;117979;-78
2024/01/25 06:13:10;;;;;;;2.83;1.70;;;10.20;61.10;;;;;;20772;6847;121337;-79
2024/01/25 06:15:36;;;;;;;5.13;1.53;;;10.20;61.10;;;;;;20776;6847;116422;-77
2024/01/25 06:18:03;;;;;;;2.33;1.20;;;10.00;61.70;;;;;;20776;6847;118349;-77
2024/01/25 06:20:27;;;;;;;5.60;2.00;;;9.80;63.10;;;;;;20537;6847;280550;-77
2024/01/25 06:22:54;;;;;;;5.03;2.20;;;10.00;62.00;;;;;;20548;6847;308227;-79
2024/01/25 06:25:20;;;;;;;3.67;1.87;;;10.30;60.90;;;;;;20775;6847;116477;-78
2024/01/25 06:27:46;;;;;;;5.03;1.80;;;10.30;60.70;;;;;;20758;6847;117624;-78
2024/01/25 06:30:12;;;;;;;7.67;2.10;;;10.00;61.00;;;;;;20823;6832;119833;-79
2024/01/25 06:32:38;;;;;;;7.73;3.00;;;9.80;62.50;;;;;;20542;6847;296820;-79
2024/01/25 06:35:05;;;;;;;21.67;12.27;;;9.90;61.70;;;;;;20823;6832;117819;-77
2024/01/25 06:37:30;;;;;;;9.40;4.67;;;9.90;62.30;;;;;;20770;6847;117513;-80
2024/01/25 06:39:58;;;;;;;7.13;3.37;;;9.70;62.10;;;;;;20557;6847;307484;-83
2024/01/25 06:42:24;;;;;;;5.43;2.30;;;9.80;61.10;;;;;;20599;6832;308614;-85
2024/01/25 06:44:50;;;;;;;6.17;2.20;;;10.00;58.80;;;;;;20520;6857;117900;-78
2024/01/25 06:47:16;;;;;;;5.43;2.87;;;10.00;58.70;;;;;;20631;6823;278102;-78
2024/01/25 06:49:42;;;;;;;6.25;4.20;;;10.10;57.80;;;;;;20634;6821;307071;-78
2024/01/25 06:52:09;;;;;;;6.05;2.58;;;10.30;56.80;;;;;;20642;6822;327014;-78
2024/01/25 06:54:35;;;;;;;4.90;2.03;;;10.50;56.10;;;;;;20830;6823;121288;-79
2024/01/25 06:57:00;;;;;;;3.87;2.50;;;10.30;56.50;;;;;;20846;6823;117760;-78
2024/01/25 06:59:26;;;;;;;6.70;2.43;;;10.00;57.30;;;;;;20644;6823;299836;-78
2024/01/25 07:01:52;;;;;;;4.90;2.40;;;10.00;56.80;;;;;;20848;6823;123464;-77
2024/01/25 07:04:18;;;;;;;7.00;2.77;;;9.80;58.80;;;;;;20849;6823;117173;-77
2024/01/25 07:06:45;;;;;;;6.07;3.40;;;9.70;58.70;;;;;;20611;6823;309219;-77
2024/01/25 07:09:11;;;;;;;7.23;2.90;;;9.80;58.00;;;;;;20629;6823;306936;-77
2024/01/25 07:11:36;;;;;;;6.55;2.30;;;10.10;56.40;;;;;;20631;6823;277471;-77
2024/01/25 07:14:02;;;;;;;3.60;1.70;;;10.20;56.30;;;;;;20850;6823;119420;-77
2024/01/25 07:16:30;;;;;;;4.80;1.97;;;10.10;56.20;;;;;;20595;6823;308013;-78
2024/01/25 07:18:53;;;;;;;4.93;1.75;;;10.20;56.30;;;;;;20818;6823;117383;-78
2024/01/25 07:21:20;;;;;;;6.37;2.03;;;9.70;58.50;;;;;;20841;6823;118169;-77
2024/01/25 07:23:45;;;;;;;5.00;2.00;;;9.70;58.30;;;;;;20621;6823;305420;-77
2024/01/25 07:26:11;;;;;;;3.73;1.70;;;9.80;58.30;;;;;;20828;6823;117239;-77
2024/01/25 07:28:37;;;;;;;5.37;1.75;;;9.50;59.90;;;;;;20782;6823;117511;-77
2024/01/25 07:31:04;;;;;;;3.83;1.50;;;9.50;59.10;;;;;;20831;6823;116912;-77
2024/01/25 07:33:29;;;;;;;5.77;2.27;;;9.30;59.70;;;;;;20610;6823;279239;-77
2024/01/25 07:35:58;;;;;;;4.97;2.20;;;9.40;59.40;;;;;;20605;6823;297365;-79
2024/01/25 07:38:21;;;;;;;3.95;1.77;;;10.00;57.10;;;;;;20616;6823;309336;-77
2024/01/25 07:40:47;;;;;;;6.10;2.97;;;10.00;57.00;;;;;;20830;6823;117303;-78
2024/01/25 07:43:13;;;;;;;17.75;15.27;;;10.00;57.30;;;;;;20608;6823;299630;-78
2024/01/25 07:45:40;;;;;;;3.90;3.40;;;9.90;58.50;;;;;;20844;6823;117496;-78
2024/01/25 07:48:04;;;;;;;5.43;3.20;;;9.90;58.50;;;;;;20633;6823;277196;-77
2024/01/25 07:50:30;;;;;;;5.78;4.80;;;10.00;57.40;;;;;;20618;6823;306544;-78
2024/01/25 07:52:56;;;;;;;6.47;3.63;;;10.20;57.30;;;;;;20844;6823;117508;-79
2024/01/25 07:55:23;;;;;;;5.83;3.43;;;10.20;57.30;;;;;;20842;6823;120138;-78
2024/01/25 07:57:50;;;;;;;4.67;2.60;;;10.00;58.10;;;;;;20637;6823;278480;-78
2024/01/25 08:00:17;;;;;;;4.90;3.10;;;10.10;57.70;;;;;;20854;6823;117652;-78
2024/01/25 08:02:44;;;;;;;3.77;2.40;;;10.20;57.40;;;;;;20614;6822;307782;-78
2024/01/25 08:05:09;;;;;;;5.30;2.33;;;10.20;57.30;;;;;;20845;6823;117185;-79
2024/01/25 08:07:35;;;;;;;5.03;2.65;;;10.30;57.70;;;;;;20631;6823;308782;-77
2024/01/25 08:10:00;;;;;;;9.77;7.90;;;10.40;57.00;;;;;;20626;6823;306924;-78
2024/01/25 08:12:26;;;;;;;7.67;6.50;;;10.70;56.30;;;;;;20611;6823;332204;-79
2024/01/25 08:14:51;;;;;;;9.87;6.10;;;11.00;55.50;;;;;;20849;6823;117274;-77
2024/01/25 08:17:17;;;;;;;9.07;6.50;;;11.00;56.00;;;;;;20632;6823;307196;-80
2024/01/25 08:19:43;;;;;;;6.87;4.73;;;11.00;55.50;;;;;;20842;6823;118159;-77
2024/01/25 08:22:09;;;;;;;9.23;7.37;;;10.90;55.90;;;;;;20633;6823;307817;-77
2024/01/25 08:24:34;;;;;;;6.93;4.82;;;11.10;55.50;;;;;;20606;6823;303982;-78
2024/01/25 08:27:00;;;;;;;6.40;2.53;;;11.30;55.70;;;;;;20848;6823;117365;-77
2024/01/25 08:29:26;;;;;;;5.47;2.70;;;11.30;55.50;;;;;;20632;6823;308603;-78
2024/01/25 08:31:52;;;;;;;3.37;2.27;;;11.40;55.60;;;;;;20843;6823;118524;-78
2024/01/25 08:34:17;;;;;;;4.03;2.00;;;11.40;55.60;;;;;;20850;6823;117164;-78
2024/01/25 08:36:45;;;;;;;4.15;2.28;;;11.30;56.30;;;;;;20611;6823;307196;-78
2024/01/25 08:39:10;;;;;;;4.87;3.00;;;11.40;55.60;;;;;;20840;6823;117907;-78
2024/01/25 08:41:37;;;;;;;5.90;2.63;;;11.50;56.10;;;;;;20850;6823;117164;-78
2024/01/25 08:44:04;;;;;;;4.57;3.47;;;11.50;55.60;;;;;;20622;6823;336534;-77
2024/01/25 08:46:29;;;;;;;4.37;2.83;;;11.50;55.50;;;;;;20823;6823;117496;-78
2024/01/25 08:48:55;;;;;;;9.38;6.00;;;11.60;55.90;;;;;;20617;6823;307058;-77
2024/01/25 08:51:21;;;;;;;7.63;3.33;;;11.80;55.70;;;;;;20839;6823;117349;-76
2024/01/25 08:53:47;;;;;;;8.27;3.07;;;11.70;55.50;;;;;;20848;6823;117426;-78
2024/01/25 08:56:12;;;;;;;7.43;4.30;;;11.70;56.20;;;;;;20631;6823;297290;-78
2024/01/25 08:58:38;;;;;;;6.05;3.60;;;12.10;54.30;;;;;;20606;6823;305206;-78
2024/01/25 09:01:04;;;;;;;4.63;2.33;;;12.10;54.30;;;;;;20847;6823;117862;-77
2024/01/25 09:03:31;;;;;;;3.30;2.13;;;12.20;54.70;;;;;;20843;6823;120220;-78
2024/01/25 09:05:56;;;;;;;3.40;1.97;;;12.10;55.30;;;;;;20846;6823;117175;-77
2024/01/25 09:08:22;;;;;;;6.85;2.47;;;12.00;56.00;;;;;;20652;6823;277084;-78
2024/01/25 09:10:47;;;;;;;6.03;2.77;;;12.10;54.30;;;;;;20621;6823;281525;-78
2024/01/25 09:13:14;;;;;;;5.80;2.83;;;12.70;53.10;;;;;;20632;6821;338406;-78
2024/01/25 09:15:39;;;;;;;7.18;3.58;;;12.60;52.50;;;;;;20624;6823;339975;-78
2024/01/25 09:18:08;;;;;;;6.37;2.35;;;12.90;52.20;;;;;;21000;6585;117627;-77
2024/01/25 09:20:44;;;;;;;9.17;4.77;;;12.90;53.00;;;;;;20792;6715;305557;-79
2024/01/25 09:23:17;;;;;;;12.10;5.93;;;13.00;52.90;;;;;;20986;6715;117768;-76
2024/01/25 09:25:53;;;;;;;5.80;2.50;;;12.90;52.80;;;;;;20875;6694;276200;-77
2024/01/25 09:28:28;;;;;;;6.60;2.63;;;13.10;52.00;;;;;;20846;6694;276175;-76
2024/01/25 09:31:24;;;;;;;6.00;2.50;;;13.40;52.50;;;;;;20867;6694;334071;-75
2024/01/25 09:34:02;;;;;;;5.80;2.30;;;13.70;51.30;;;;;;21009;6694;117683;-75
2024/01/25 09:36:35;;;;;;;5.13;2.20;;;13.60;52.20;;;;;;21115;6695;116042;-75
2024/01/25 09:39:10;;;;;;;5.00;2.07;;;13.40;53.10;;;;;;21128;6695;116024;-75
2024/01/25 09:41:46;;;;;;;3.83;2.00;;;13.20;53.90;;;;;;21131;6695;115905;-75
2024/01/25 09:44:23;;;;;;;6.50;2.47;;;13.10;54.30;;;;;;20760;6695;306142;-76
2024/01/25 09:47:00;;;;;;;10.10;2.60;;;13.20;52.10;;;;;;21074;6695;117093;-77
2024/01/25 09:49:37;;;;;;;8.27;2.17;;;13.30;52.90;;;;;;21064;6695;117838;-76
2024/01/25 09:52:12;;;;;;;7.50;2.80;;;13.30;53.60;;;;;;20891;6695;314590;-75
2024/01/25 09:54:47;;;;;;;8.13;2.60;;;13.40;51.20;;;;;;20880;6699;118191;-75
2024/01/25 09:57:24;;;;;;;5.87;2.77;;;13.40;52.60;;;;;;21125;6695;115901;-79
2024/01/25 09:59:59;;;;;;;8.97;2.93;;;13.40;52.50;;;;;;20899;6695;301384;-76
2024/01/25 10:02:35;;;;;;;8.73;4.73;;;13.50;51.30;;;;;;20825;6695;275513;-76
2024/01/25 10:05:11;;;;;;;7.90;3.03;;;13.90;50.40;;;;;;20616;6766;338436;-78
2024/01/25 10:07:46;;;;;;;8.67;2.73;;;14.10;47.70;;;;;;21070;6695;116856;-77
2024/01/25 10:10:22;;;;;;;8.50;2.60;;;14.00;49.10;;;;;;21073;6695;117875;-76
2024/01/25 10:13:01;;;;;;;7.77;2.67;;;13.70;50.40;;;;;;21048;6695;117220;-77
2024/01/25 10:15:33;;;;;;;10.27;2.67;;;13.60;51.60;;;;;;21069;6695;117360;-76
2024/01/25 10:18:12;;;;;;;7.37;2.30;;;13.30;53.50;;;;;;21072;6695;117991;-76
2024/01/25 10:20:45;;;;;;;4.30;1.93;;;13.30;52.90;;;;;;21052;6695;117346;-76
2024/01/25 10:23:22;;;;;;;6.55;2.67;;;13.20;53.30;;;;;;20787;6695;306611;-76
2024/01/25 10:25:56;;;;;;;7.43;2.70;;;13.40;50.90;;;;;;21075;6695;116585;-76
2024/01/25 10:28:32;;;;;;;8.52;2.70;;;13.40;51.50;;;;;;20835;6695;304851;-76
2024/01/25 10:31:08;;;;;;;7.30;2.47;;;13.50;50.80;;;;;;21080;6695;117397;-76
2024/01/25 10:33:44;;;;;;;6.67;2.60;;;13.50;51.10;;;;;;20754;6695;306579;-75
2024/01/25 10:36:23;;;;;;;7.47;2.80;;;13.80;49.30;;;;;;20852;6695;305876;-76
2024/01/25 10:39:01;;;;;;;5.60;2.30;;;13.80;50.00;;;;;;21076;6695;117062;-77
2024/01/25 10:41:37;;;;;;;7.30;2.62;;;13.80;50.50;;;;;;20865;6695;304859;-77
2024/01/25 10:44:13;;;;;;;4.47;2.20;;;13.90;49.00;;;;;;20921;6695;118436;-77
2024/01/25 10:46:48;;;;;;;4.00;1.50;;;13.50;50.70;;;;;;21053;6695;119585;-77
2024/01/25 10:49:24;;;;;;;5.43;2.77;;;13.50;50.70;;;;;;20855;6695;305084;-77
2024/01/25 10:52:00;;;;;;;6.97;2.73;;;13.50;49.10;;;;;;21076;6695;116804;-74
2024/01/25 10:54:35;;;;;;;6.60;2.45;;;13.60;50.50;;;;;;20676;6695;278456;-77
2024/01/25 10:57:11;;;;;;;3.07;1.93;;;13.80;50.30;;;;;;21074;6695;117263;-76
2024/01/25 10:59:46;;;;;;;8.13;2.57;;;14.00;51.20;;;;;;21073;6695;116826;-76
2024/01/25 11:02:22;;;;;;;7.78;2.80;;;14.00;51.60;;;;;;20859;6695;304445;-75
2024/01/25 11:04:58;;;;;;;5.93;2.00;;;14.20;49.60;;;;;;20847;6695;117634;-75
2024/01/25 11:07:33;;;;;;;5.63;2.30;;;14.30;50.50;;;;;;21071;6695;117765;-74
2024/01/25 11:10:12;;;;;;;7.03;1.97;;;14.20;51.10;;;;;;21064;6695;116689;-74
2024/01/25 11:12:48;;;;;;;7.17;2.13;;;14.20;51.60;;;;;;21024;6695;118935;-74
2024/01/25 11:15:31;;;;;;;7.43;2.20;;;13.70;52.30;;;;;;21057;6695;117466;-74
2024/01/25 11:18:07;;;;;;;4.00;2.07;;;13.70;51.70;;;;;;21073;6695;116968;-74
2024/01/25 11:20:43;;;;;;;7.43;1.97;;;13.50;52.30;;;;;;21005;6713;118229;-74
2024/01/25 11:23:19;;;;;;;7.53;2.10;;;13.30;52.40;;;;;;20974;6713;118065;-74
2024/01/25 11:25:57;;;;;;;6.20;2.40;;;13.00;52.50;;;;;;20786;6731;334328;-75
2024/01/25 11:28:36;;;;;;;6.00;2.23;;;13.10;49.50;;;;;;20967;6724;119154;-74
2024/01/25 11:31:09;;;;;;;6.40;2.17;;;13.10;50.40;;;;;;21001;6724;116732;-75
2024/01/25 11:33:44;;;;;;;5.53;2.10;;;12.90;51.20;;;;;;20901;6724;117223;-76
2024/01/25 11:36:21;;;;;;;7.17;1.93;;;12.50;52.30;;;;;;20970;6730;116671;-75
2024/01/25 11:38:57;;;;;;;5.90;2.60;;;12.50;52.90;;;;;;20785;6714;305116;-76
2024/01/25 11:41:32;;;;;;;8.67;2.97;;;12.70;50.30;;;;;;20712;6744;279651;-76
2024/01/25 11:44:07;;;;;;;7.95;2.67;;;13.00;49.40;;;;;;20654;6735;337975;-75
2024/01/25 11:46:43;;;;;;;7.68;2.75;;;13.20;48.70;;;;;;20770;6717;305575;-75
2024/01/25 11:49:19;;;;;;;7.50;2.80;;;13.60;48.70;;;;;;20724;6738;306094;-74
2024/01/25 11:51:55;;;;;;;6.07;2.35;;;13.60;48.00;;;;;;20752;6731;335501;-74
2024/01/25 11:54:31;;;;;;;7.17;2.53;;;13.60;48.00;;;;;;20859;6727;117087;-75
2024/01/25 11:57:07;;;;;;;8.03;2.73;;;13.50;48.40;;;;;;20740;6731;277078;-75
2024/01/25 11:59:45;;;;;;;7.17;3.10;;;13.60;48.30;;;;;;20753;6732;276226;-76
2024/01/25 12:02:20;;;;;;;7.57;2.78;;;13.80;48.00;;;;;;20782;6716;305373;-75
2024/01/25 12:04:56;;;;;;;9.87;2.33;;;14.10;48.40;;;;;;20857;6716;117104;-75
2024/01/25 12:07:31;;;;;;;5.72;2.85;;;14.00;49.10;;;;;;20842;6706;275215;-75
2024/01/25 12:10:07;;;;;;;8.60;2.30;;;14.10;48.00;;;;;;20966;6728;118127;-75
2024/01/25 12:12:43;;;;;;;4.77;2.63;;;14.00;50.30;;;;;;20913;6735;117547;-75
2024/01/25 12:15:19;;;;;;;8.40;2.80;;;14.00;50.30;;;;;;20738;6730;305659;-75
2024/01/25 12:17:57;;;;;;;5.13;1.93;;;14.30;48.10;;;;;;20940;6745;67622;-76
2024/01/25 12:20:30;;;;;;;7.20;2.83;;;14.30;48.50;;;;;;20789;6715;305159;-79
2024/01/25 12:23:06;;;;;;;5.53;2.90;;;14.40;47.70;;;;;;20764;6715;278022;-76
2024/01/25 12:25:41;;;;;;;5.12;2.20;;;14.70;47.30;;;;;;20801;6715;333973;-76
2024/01/25 12:28:18;;;;;;;9.50;2.83;;;15.00;46.70;;;;;;20962;6732;116968;-75
2024/01/25 12:30:54;;;;;;;4.20;2.07;;;14.90;47.80;;;;;;20909;6745;117180;-76
2024/01/25 12:33:29;;;;;;;5.47;1.80;;;14.60;48.60;;;;;;20954;6715;116954;-76
2024/01/25 12:36:06;;;;;;;5.40;2.00;;;14.10;50.00;;;;;;20996;6721;116771;-78
2024/01/25 12:38:41;;;;;;;7.70;2.03;;;14.10;50.00;;;;;;20966;6724;116927;-77
2024/01/25 12:41:18;;;;;;;7.20;2.03;;;14.00;51.20;;;;;;20972;6730;116976;-76
2024/01/25 12:43:55;;;;;;;6.30;2.60;;;13.90;51.10;;;;;;20682;6730;306990;-76
2024/01/25 12:46:34;;;;;;;7.25;3.97;;;14.10;48.20;;;;;;20757;6715;275694;-76
2024/01/25 12:49:09;;;;;;;6.77;3.00;;;14.40;47.00;;;;;;20700;6745;305580;-75
2024/01/25 12:51:45;;;;;;;6.53;2.13;;;14.70;46.20;;;;;;20995;6720;117154;-77
2024/01/25 12:54:24;;;;;;;8.57;3.00;;;14.60;47.30;;;;;;20700;6720;309710;-77
2024/01/25 12:56:56;;;;;;;9.60;3.00;;;14.60;46.50;;;;;;20811;6705;305469;-78